sensor_id;sensor_type;location;lat;lon;timestamp;pressure;altitude;pressure_sealevel;temperature;humidity
40872;BME280;26591;43.264;26.940;2023-12-20T00:00:59;99256.13;;;9.52;66.66
40872;BME280;26591;43.264;26.940;2023-12-20T00:03:24;99247.66;;;10.01;63.69
40872;BME280;26591;43.264;26.940;2023-12-20T00:05:50;99254.19;;;10.41;61.31
40872;BME280;26591;43.264;26.940;2023-12-20T00:08:16;99249.50;;;10.35;58.90
40872;BME280;26591;43.264;26.940;2023-12-20T00:10:42;99241.53;;;9.92;58.16
40872;BME280;26591;43.264;26.940;2023-12-20T00:13:08;99248.94;;;9.88;58.49
40872;BME280;26591;43.264;26.940;2023-12-20T00:15:34;99246.81;;;10.61;57.85
40872;BME280;26591;43.264;26.940;2023-12-20T00:17:59;99241.75;;;11.01;56.72
40872;BME280;26591;43.264;26.940;2023-12-20T00:20:26;99246.06;;;11.27;55.65
40872;BME280;26591;43.264;26.940;2023-12-20T00:22:52;99241.94;;;11.33;55.12
40872;BME280;26591;43.264;26.940;2023-12-20T00:25:18;99238.13;;;11.43;54.87
40872;BME280;26591;43.264;26.940;2023-12-20T00:27:43;99241.41;;;11.70;54.01
40872;BME280;26591;43.264;26.940;2023-12-20T00:30:09;99244.53;;;11.74;53.60
40872;BME280;26591;43.264;26.940;2023-12-20T00:32:35;99244.53;;;11.82;53.29
40872;BME280;26591;43.264;26.940;2023-12-20T00:35:01;99231.16;;;11.42;52.40
40872;BME280;26591;43.264;26.940;2023-12-20T00:37:26;99226.84;;;10.92;53.01
40872;BME280;26591;43.264;26.940;2023-12-20T00:39:52;99224.53;;;10.37;54.04
40872;BME280;26591;43.264;26.940;2023-12-20T00:42:18;99224.31;;;9.88;54.95
40872;BME280;26591;43.264;26.940;2023-12-20T00:44:44;99220.91;;;9.25;56.66
40872;BME280;26591;43.264;26.940;2023-12-20T00:47:09;99215.28;;;8.83;57.83
40872;BME280;26591;43.264;26.940;2023-12-20T00:49:35;99210.19;;;8.54;59.07
40872;BME280;26591;43.264;26.940;2023-12-20T00:52:01;99206.59;;;8.27;60.41
40872;BME280;26591;43.264;26.940;2023-12-20T00:54:26;99204.34;;;8.32;59.91
40872;BME280;26591;43.264;26.940;2023-12-20T00:56:52;99197.25;;;8.33;60.53
40872;BME280;26591;43.264;26.940;2023-12-20T00:59:19;99192.44;;;8.00;60.59
40872;BME280;26591;43.264;26.940;2023-12-20T01:01:44;99183.59;;;7.91;60.71
40872;BME280;26591;43.264;26.940;2023-12-20T01:04:10;99180.34;;;7.70;61.70
40872;BME280;26591;43.264;26.940;2023-12-20T01:06:35;99178.19;;;7.55;61.78
40872;BME280;26591;43.264;26.940;2023-12-20T01:09:05;99167.81;;;7.44;61.85
40872;BME280;26591;43.264;26.940;2023-12-20T01:11:30;99158.31;;;7.03;62.92
40872;BME280;26591;43.264;26.940;2023-12-20T01:13:58;99161.41;;;6.60;65.20
40872;BME280;26591;43.264;26.940;2023-12-20T01:16:24;99163.28;;;6.38;65.68
40872;BME280;26591;43.264;26.940;2023-12-20T01:18:49;99157.22;;;6.37;66.21
40872;BME280;26591;43.264;26.940;2023-12-20T01:21:15;99150.50;;;6.14;66.79
40872;BME280;26591;43.264;26.940;2023-12-20T01:23:40;99154.91;;;6.03;67.70
40872;BME280;26591;43.264;26.940;2023-12-20T01:26:06;99142.28;;;5.87;67.81
40872;BME280;26591;43.264;26.940;2023-12-20T01:28:31;99146.13;;;5.83;68.37
40872;BME280;26591;43.264;26.940;2023-12-20T01:30:57;99127.47;;;5.96;68.19
40872;BME280;26591;43.264;26.940;2023-12-20T01:33:23;99133.63;;;6.06;67.64
40872;BME280;26591;43.264;26.940;2023-12-20T01:35:49;99125.34;;;6.11;67.91
40872;BME280;26591;43.264;26.940;2023-12-20T01:38:14;99123.03;;;6.28;67.75
40872;BME280;26591;43.264;26.940;2023-12-20T01:40:40;99118.19;;;6.23;67.45
40872;BME280;26591;43.264;26.940;2023-12-20T01:43:08;99108.50;;;6.23;67.05
40872;BME280;26591;43.264;26.940;2023-12-20T01:45:35;99114.84;;;6.11;67.13
40872;BME280;26591;43.264;26.940;2023-12-20T01:48:00;99108.75;;;6.20;67.16
40872;BME280;26591;43.264;26.940;2023-12-20T01:50:28;99103.53;;;5.89;67.78
40872;BME280;26591;43.264;26.940;2023-12-20T01:52:55;99099.69;;;5.93;68.09
40872;BME280;26591;43.264;26.940;2023-12-20T01:55:23;99098.56;;;5.96;67.65
40872;BME280;26591;43.264;26.940;2023-12-20T01:57:50;99103.53;;;5.89;68.02
40872;BME280;26591;43.264;26.940;2023-12-20T02:00:15;99096.78;;;5.87;67.90
40872;BME280;26591;43.264;26.940;2023-12-20T02:02:43;99095.53;;;5.91;67.94
40872;BME280;26591;43.264;26.940;2023-12-20T02:05:12;99092.66;;;5.94;68.22
40872;BME280;26591;43.264;26.940;2023-12-20T02:07:38;99088.44;;;5.81;68.28
40872;BME280;26591;43.264;26.940;2023-12-20T02:10:04;99085.56;;;5.85;67.89
40872;BME280;26591;43.264;26.940;2023-12-20T02:12:30;99074.63;;;5.70;68.17
40872;BME280;26591;43.264;26.940;2023-12-20T02:14:55;99073.78;;;5.69;68.83
40872;BME280;26591;43.264;26.940;2023-12-20T02:17:22;99061.59;;;5.68;68.95
40872;BME280;26591;43.264;26.940;2023-12-20T02:19:47;99062.31;;;5.70;68.43
40872;BME280;26591;43.264;26.940;2023-12-20T02:22:15;99060.94;;;5.76;69.34
40872;BME280;26591;43.264;26.940;2023-12-20T02:24:41;99057.81;;;5.92;68.39
40872;BME280;26591;43.264;26.940;2023-12-20T02:27:07;99058.22;;;5.87;69.04
40872;BME280;26591;43.264;26.940;2023-12-20T02:29:34;99054.88;;;5.85;68.93
40872;BME280;26591;43.264;26.940;2023-12-20T02:31:59;99044.53;;;5.93;68.14
40872;BME280;26591;43.264;26.940;2023-12-20T02:34:25;99043.28;;;5.98;68.67
40872;BME280;26591;43.264;26.940;2023-12-20T02:36:51;99043.47;;;6.06;68.35
40872;BME280;26591;43.264;26.940;2023-12-20T02:39:16;99038.50;;;6.03;68.12
40872;BME280;26591;43.264;26.940;2023-12-20T02:41:42;99033.06;;;5.94;67.81
40872;BME280;26591;43.264;26.940;2023-12-20T02:44:07;99031.38;;;5.93;67.99
40872;BME280;26591;43.264;26.940;2023-12-20T02:47:10;99027.94;;;5.93;68.04
40872;BME280;26591;43.264;26.940;2023-12-20T02:49:35;99034.31;;;6.00;68.45
40872;BME280;26591;43.264;26.940;2023-12-20T02:52:01;99029.63;;;6.04;67.89
40872;BME280;26591;43.264;26.940;2023-12-20T02:54:26;99035.88;;;6.03;67.98
40872;BME280;26591;43.264;26.940;2023-12-20T02:56:51;99027.56;;;6.07;67.42
40872;BME280;26591;43.264;26.940;2023-12-20T02:59:17;99024.34;;;5.84;68.02
40872;BME280;26591;43.264;26.940;2023-12-20T03:01:44;99019.09;;;5.84;67.19
40872;BME280;26591;43.264;26.940;2023-12-20T03:04:11;99018.22;;;5.84;67.70
40872;BME280;26591;43.264;26.940;2023-12-20T03:06:36;99021.81;;;5.83;68.11
40872;BME280;26591;43.264;26.940;2023-12-20T03:09:02;99018.91;;;5.76;67.68
40872;BME280;26591;43.264;26.940;2023-12-20T03:11:28;99021.44;;;5.77;67.83
40872;BME280;26591;43.264;26.940;2023-12-20T03:13:54;99012.28;;;5.81;67.64
40872;BME280;26591;43.264;26.940;2023-12-20T03:16:19;99016.59;;;5.92;67.75
40872;BME280;26591;43.264;26.940;2023-12-20T03:18:45;99003.59;;;5.91;68.41
40872;BME280;26591;43.264;26.940;2023-12-20T03:21:10;99002.63;;;5.82;68.37
40872;BME280;26591;43.264;26.940;2023-12-20T03:23:36;99005.00;;;5.85;68.31
40872;BME280;26591;43.264;26.940;2023-12-20T03:26:01;99009.94;;;5.78;67.73
40872;BME280;26591;43.264;26.940;2023-12-20T03:28:29;99000.25;;;5.79;68.07
40872;BME280;26591;43.264;26.940;2023-12-20T03:30:55;99004.13;;;5.85;67.88
40872;BME280;26591;43.264;26.940;2023-12-20T03:33:20;99001.09;;;5.89;68.31
40872;BME280;26591;43.264;26.940;2023-12-20T03:35:46;98999.16;;;5.91;68.09
40872;BME280;26591;43.264;26.940;2023-12-20T03:38:11;98991.44;;;5.90;68.17
40872;BME280;26591;43.264;26.940;2023-12-20T03:40:37;98990.47;;;5.81;67.98
40872;BME280;26591;43.264;26.940;2023-12-20T03:43:03;98982.00;;;5.68;68.13
40872;BME280;26591;43.264;26.940;2023-12-20T03:45:28;98976.59;;;5.59;68.69
40872;BME280;26591;43.264;26.940;2023-12-20T03:47:54;98967.50;;;5.63;68.41
40872;BME280;26591;43.264;26.940;2023-12-20T03:50:25;98962.91;;;5.56;68.90
40872;BME280;26591;43.264;26.940;2023-12-20T03:52:50;98962.78;;;5.47;69.03
40872;BME280;26591;43.264;26.940;2023-12-20T03:55:16;98954.63;;;5.41;68.50
40872;BME280;26591;43.264;26.940;2023-12-20T03:57:42;98955.00;;;5.46;69.04
40872;BME280;26591;43.264;26.940;2023-12-20T04:00:08;98959.44;;;5.45;68.56
40872;BME280;26591;43.264;26.940;2023-12-20T04:02:40;98949.94;;;5.64;68.92
40872;BME280;26591;43.264;26.940;2023-12-20T04:05:06;98950.78;;;5.64;69.19
40872;BME280;26591;43.264;26.940;2023-12-20T04:07:32;98958.09;;;5.61;69.30
40872;BME280;26591;43.264;26.940;2023-12-20T04:09:58;98938.59;;;5.63;69.09
40872;BME280;26591;43.264;26.940;2023-12-20T04:12:23;98935.84;;;5.55;68.83
40872;BME280;26591;43.264;26.940;2023-12-20T04:14:49;98944.53;;;5.46;68.84
40872;BME280;26591;43.264;26.940;2023-12-20T04:17:15;98938.88;;;5.50;69.31
40872;BME280;26591;43.264;26.940;2023-12-20T04:19:41;98939.16;;;5.57;69.05
40872;BME280;26591;43.264;26.940;2023-12-20T04:22:07;98933.56;;;5.21;69.43
40872;BME280;26591;43.264;26.940;2023-12-20T04:24:32;98938.53;;;5.24;69.90
40872;BME280;26591;43.264;26.940;2023-12-20T04:26:58;98929.84;;;5.14;69.55
40872;BME280;26591;43.264;26.940;2023-12-20T04:29:23;98930.69;;;4.83;70.90
40872;BME280;26591;43.264;26.940;2023-12-20T04:31:49;98928.31;;;4.80;71.69
40872;BME280;26591;43.264;26.940;2023-12-20T04:34:16;98927.44;;;5.01;71.45
40872;BME280;26591;43.264;26.940;2023-12-20T04:36:42;98925.81;;;5.10;70.63
40872;BME280;26591;43.264;26.940;2023-12-20T04:39:08;98917.25;;;5.17;70.61
40872;BME280;26591;43.264;26.940;2023-12-20T04:41:33;98919.63;;;5.21;70.92
40872;BME280;26591;43.264;26.940;2023-12-20T04:43:59;98918.09;;;5.28;71.12
40872;BME280;26591;43.264;26.940;2023-12-20T04:46:26;98927.03;;;5.06;70.89
40872;BME280;26591;43.264;26.940;2023-12-20T04:48:51;98924.69;;;5.12;70.89
40872;BME280;26591;43.264;26.940;2023-12-20T04:51:17;98928.03;;;5.14;70.18
40872;BME280;26591;43.264;26.940;2023-12-20T04:53:42;98924.81;;;5.01;70.61
40872;BME280;26591;43.264;26.940;2023-12-20T04:56:08;98926.22;;;5.15;70.54
40872;BME280;26591;43.264;26.940;2023-12-20T04:58:33;98910.78;;;5.22;71.00
40872;BME280;26591;43.264;26.940;2023-12-20T05:00:59;98912.56;;;5.21;70.89
40872;BME280;26591;43.264;26.940;2023-12-20T05:03:24;98910.09;;;5.19;70.93
40872;BME280;26591;43.264;26.940;2023-12-20T05:05:50;98910.09;;;5.39;72.73
40872;BME280;26591;43.264;26.940;2023-12-20T05:08:15;98909.56;;;5.35;71.72
40872;BME280;26591;43.264;26.940;2023-12-20T05:10:41;98905.97;;;5.37;71.38
40872;BME280;26591;43.264;26.940;2023-12-20T05:13:09;98904.03;;;5.39;71.10
40872;BME280;26591;43.264;26.940;2023-12-20T05:15:34;98903.78;;;5.42;70.91
40872;BME280;26591;43.264;26.940;2023-12-20T05:18:00;98898.78;;;5.29;70.67
40872;BME280;26591;43.264;26.940;2023-12-20T05:20:25;98900.59;;;5.28;70.44
40872;BME280;26591;43.264;26.940;2023-12-20T05:22:51;98900.84;;;5.25;71.14
40872;BME280;26591;43.264;26.940;2023-12-20T05:25:16;98901.53;;;5.17;71.01
40872;BME280;26591;43.264;26.940;2023-12-20T05:27:42;98894.84;;;5.03;71.35
40872;BME280;26591;43.264;26.940;2023-12-20T05:30:07;98897.59;;;4.92;71.07
40872;BME280;26591;43.264;26.940;2023-12-20T05:32:33;98895.97;;;5.11;73.34
40872;BME280;26591;43.264;26.940;2023-12-20T05:34:58;98893.69;;;4.86;72.30
40872;BME280;26591;43.264;26.940;2023-12-20T05:37:24;98890.34;;;4.74;72.20
40872;BME280;26591;43.264;26.940;2023-12-20T05:39:49;98887.47;;;4.78;71.98
40872;BME280;26591;43.264;26.940;2023-12-20T05:42:15;98897.41;;;4.74;72.46
40872;BME280;26591;43.264;26.940;2023-12-20T05:44:40;98902.84;;;4.61;71.93
40872;BME280;26591;43.264;26.940;2023-12-20T05:47:06;98896.16;;;4.78;72.52
40872;BME280;26591;43.264;26.940;2023-12-20T05:49:31;98897.34;;;5.15;72.46
40872;BME280;26591;43.264;26.940;2023-12-20T05:51:57;98896.88;;;5.70;72.34
40872;BME280;26591;43.264;26.940;2023-12-20T05:54:22;98898.09;;;5.95;71.56
40872;BME280;26591;43.264;26.940;2023-12-20T05:56:48;98901.91;;;6.50;70.81
40872;BME280;26591;43.264;26.940;2023-12-20T05:59:14;98906.78;;;6.83;69.59
40872;BME280;26591;43.264;26.940;2023-12-20T06:01:39;98903.25;;;7.20;68.02
40872;BME280;26591;43.264;26.940;2023-12-20T06:04:05;98903.53;;;7.63;67.38
40872;BME280;26591;43.264;26.940;2023-12-20T06:06:43;98904.03;;;7.85;65.40
40872;BME280;26591;43.264;26.940;2023-12-20T06:09:09;98898.59;;;8.04;63.80
40872;BME280;26591;43.264;26.940;2023-12-20T06:11:34;98890.28;;;8.44;63.16
40872;BME280;26591;43.264;26.940;2023-12-20T06:14:00;98891.78;;;8.73;62.43
40872;BME280;26591;43.264;26.940;2023-12-20T06:16:59;98892.44;;;9.09;60.64
40872;BME280;26591;43.264;26.940;2023-12-20T06:19:26;98893.97;;;9.28;59.27
40872;BME280;26591;43.264;26.940;2023-12-20T06:21:52;98900.16;;;9.70;59.76
40872;BME280;26591;43.264;26.940;2023-12-20T06:24:17;98898.34;;;9.96;58.36
40872;BME280;26591;43.264;26.940;2023-12-20T06:26:43;98891.06;;;10.14;57.65
40872;BME280;26591;43.264;26.940;2023-12-20T06:29:08;98885.59;;;10.41;56.93
40872;BME280;26591;43.264;26.940;2023-12-20T06:31:34;98884.03;;;10.63;55.84
40872;BME280;26591;43.264;26.940;2023-12-20T06:33:59;98879.75;;;11.10;55.85
40872;BME280;26591;43.264;26.940;2023-12-20T06:36:26;98884.91;;;11.35;54.54
40872;BME280;26591;43.264;26.940;2023-12-20T06:38:52;98881.28;;;11.27;53.96
40872;BME280;26591;43.264;26.940;2023-12-20T06:41:18;98879.59;;;11.03;54.25
40872;BME280;26591;43.264;26.940;2023-12-20T06:43:43;98875.66;;;10.99;53.56
40872;BME280;26591;43.264;26.940;2023-12-20T06:46:15;98867.63;;;10.76;53.75
40872;BME280;26591;43.264;26.940;2023-12-20T06:48:40;98867.44;;;10.77;54.64
40872;BME280;26591;43.264;26.940;2023-12-20T06:51:06;98871.47;;;11.05;54.42
40872;BME280;26591;43.264;26.940;2023-12-20T06:53:31;98876.59;;;11.38;54.99
40872;BME280;26591;43.264;26.940;2023-12-20T06:55:57;98872.53;;;11.73;53.33
40872;BME280;26591;43.264;26.940;2023-12-20T06:58:23;98880.03;;;12.31;53.42
40872;BME280;26591;43.264;26.940;2023-12-20T07:00:49;98867.38;;;12.78;51.66
40872;BME280;26591;43.264;26.940;2023-12-20T07:03:15;98861.75;;;13.18;51.00
40872;BME280;26591;43.264;26.940;2023-12-20T07:05:41;98857.22;;;13.34;50.06
40872;BME280;26591;43.264;26.940;2023-12-20T07:08:09;98856.91;;;13.65;49.83
40872;BME280;26591;43.264;26.940;2023-12-20T07:10:35;98845.81;;;13.83;49.70
40872;BME280;26591;43.264;26.940;2023-12-20T07:13:04;98844.75;;;13.99;48.89
40872;BME280;26591;43.264;26.940;2023-12-20T07:15:29;98848.47;;;14.05;48.35
40872;BME280;26591;43.264;26.940;2023-12-20T07:17:55;98842.94;;;14.07;48.25
40872;BME280;26591;43.264;26.940;2023-12-20T07:20:20;98848.38;;;14.27;47.69
40872;BME280;26591;43.264;26.940;2023-12-20T07:22:46;98849.97;;;14.49;47.48
40872;BME280;26591;43.264;26.940;2023-12-20T07:25:11;98846.28;;;14.86;47.07
40872;BME280;26591;43.264;26.940;2023-12-20T07:27:49;98845.41;;;15.20;46.60
40872;BME280;26591;43.264;26.940;2023-12-20T07:30:14;98835.13;;;15.24;46.26
40872;BME280;26591;43.264;26.940;2023-12-20T07:32:40;98838.03;;;15.29;45.81
40872;BME280;26591;43.264;26.940;2023-12-20T07:35:06;98834.72;;;15.14;45.29
40872;BME280;26591;43.264;26.940;2023-12-20T07:37:31;98827.28;;;15.09;45.40
40872;BME280;26591;43.264;26.940;2023-12-20T07:39:57;98817.47;;;15.09;45.10
40872;BME280;26591;43.264;26.940;2023-12-20T07:42:22;98818.50;;;15.15;44.81
40872;BME280;26591;43.264;26.940;2023-12-20T07:44:48;98810.72;;;15.07;45.18
40872;BME280;26591;43.264;26.940;2023-12-20T07:47:13;98809.81;;;14.86;45.36
40872;BME280;26591;43.264;26.940;2023-12-20T07:49:42;98806.03;;;14.32;46.95
40872;BME280;26591;43.264;26.940;2023-12-20T07:52:08;98810.38;;;14.04;47.64
40872;BME280;26591;43.264;26.940;2023-12-20T07:54:33;98810.38;;;13.76;47.69
40872;BME280;26591;43.264;26.940;2023-12-20T07:56:59;98810.22;;;13.56;48.40
40872;BME280;26591;43.264;26.940;2023-12-20T07:59:24;98803.31;;;13.40;48.48
40872;BME280;26591;43.264;26.940;2023-12-20T08:01:50;98802.16;;;12.91;49.19
40872;BME280;26591;43.264;26.940;2023-12-20T08:04:15;98799.75;;;12.59;50.34
40872;BME280;26591;43.264;26.940;2023-12-20T08:06:40;98802.72;;;12.34;50.95
40872;BME280;26591;43.264;26.940;2023-12-20T08:09:06;98800.69;;;12.21;51.78
40872;BME280;26591;43.264;26.940;2023-12-20T08:11:31;98797.00;;;12.08;51.78
40872;BME280;26591;43.264;26.940;2023-12-20T08:13:57;98796.38;;;12.05;52.56
40872;BME280;26591;43.264;26.940;2023-12-20T08:16:23;98795.28;;;12.15;52.31
40872;BME280;26591;43.264;26.940;2023-12-20T08:18:48;98791.09;;;12.05;51.97
40872;BME280;26591;43.264;26.940;2023-12-20T08:21:14;98785.22;;;12.10;51.87
40872;BME280;26591;43.264;26.940;2023-12-20T08:23:39;98795.94;;;11.79;53.27
40872;BME280;26591;43.264;26.940;2023-12-20T08:26:08;98778.75;;;11.74;53.36
40872;BME280;26591;43.264;26.940;2023-12-20T08:28:34;98765.66;;;11.58;53.82
40872;BME280;26591;43.264;26.940;2023-12-20T08:31:02;98770.06;;;11.66;53.60
40872;BME280;26591;43.264;26.940;2023-12-20T08:33:27;98765.06;;;11.48;53.83
40872;BME280;26591;43.264;26.940;2023-12-20T08:35:53;98758.91;;;11.32;54.59
40872;BME280;26591;43.264;26.940;2023-12-20T08:38:18;98753.53;;;11.40;53.99
40872;BME280;26591;43.264;26.940;2023-12-20T08:40:44;98755.03;;;11.58;53.76
40872;BME280;26591;43.264;26.940;2023-12-20T08:43:09;98752.31;;;11.66;53.55
40872;BME280;26591;43.264;26.940;2023-12-20T08:45:35;98744.75;;;11.93;53.35
40872;BME280;26591;43.264;26.940;2023-12-20T08:48:01;98737.09;;;12.13;52.86
40872;BME280;26591;43.264;26.940;2023-12-20T08:50:26;98728.41;;;12.34;52.80
40872;BME280;26591;43.264;26.940;2023-12-20T08:52:52;98724.41;;;12.60;51.75
40872;BME280;26591;43.264;26.940;2023-12-20T08:58:41;98713.25;;;13.08;50.45
40872;BME280;26591;43.264;26.940;2023-12-20T09:01:07;98709.81;;;13.36;50.67
40872;BME280;26591;43.264;26.940;2023-12-20T09:03:33;98706.53;;;13.56;49.63
40872;BME280;26591;43.264;26.940;2023-12-20T09:05:58;98711.88;;;13.63;49.29
40872;BME280;26591;43.264;26.940;2023-12-20T09:08:24;98708.25;;;13.70;49.21
40872;BME280;26591;43.264;26.940;2023-12-20T09:10:49;98700.31;;;13.77;49.24
40872;BME280;26591;43.264;26.940;2023-12-20T09:13:15;98695.09;;;13.62;49.47
40872;BME280;26591;43.264;26.940;2023-12-20T09:15:40;98694.84;;;13.50;49.83
40872;BME280;26591;43.264;26.940;2023-12-20T09:18:09;98687.72;;;13.57;49.50
40872;BME280;26591;43.264;26.940;2023-12-20T09:20:35;98678.72;;;13.30;49.51
40872;BME280;26591;43.264;26.940;2023-12-20T09:23:00;98672.13;;;13.26;49.88
40872;BME280;26591;43.264;26.940;2023-12-20T09:25:26;98668.66;;;13.54;49.40
40872;BME280;26591;43.264;26.940;2023-12-20T09:27:54;98666.06;;;13.39;50.50
40872;BME280;26591;43.264;26.940;2023-12-20T09:30:19;98662.09;;;13.21;51.11
40872;BME280;26591;43.264;26.940;2023-12-20T09:32:45;98663.22;;;13.12;51.71
40872;BME280;26591;43.264;26.940;2023-12-20T09:35:11;98649.38;;;12.95;52.39
40872;BME280;26591;43.264;26.940;2023-12-20T09:37:36;98649.75;;;12.92;53.09
40872;BME280;26591;43.264;26.940;2023-12-20T09:40:03;98647.94;;;12.92;53.61
40872;BME280;26591;43.264;26.940;2023-12-20T09:42:58;98637.59;;;12.76;53.34
40872;BME280;26591;43.264;26.940;2023-12-20T09:45:24;98633.72;;;12.78;53.48
40872;BME280;26591;43.264;26.940;2023-12-20T09:47:51;98639.56;;;12.95;53.26
40872;BME280;26591;43.264;26.940;2023-12-20T09:50:21;98640.09;;;13.06;53.10
40872;BME280;26591;43.264;26.940;2023-12-20T09:52:51;98624.78;;;13.08;53.61
40872;BME280;26591;43.264;26.940;2023-12-20T09:55:18;98618.63;;;13.36;52.38
40872;BME280;26591;43.264;26.940;2023-12-20T09:57:44;98621.69;;;13.68;51.76
40872;BME280;26591;43.264;26.940;2023-12-20T10:00:14;98615.22;;;13.77;50.50
40872;BME280;26591;43.264;26.940;2023-12-20T10:02:58;98612.50;;;14.19;50.46
40872;BME280;26591;43.264;26.940;2023-12-20T10:05:34;98610.47;;;14.21;48.67
40872;BME280;26591;43.264;26.940;2023-12-20T10:08:00;98600.22;;;14.11;47.21
40872;BME280;26591;43.264;26.940;2023-12-20T10:10:27;98592.69;;;13.73;47.51
40872;BME280;26591;43.264;26.940;2023-12-20T10:15:28;98573.16;;;12.45;48.88
40872;BME280;26591;43.264;26.940;2023-12-20T10:17:53;98569.38;;;13.05;48.60
40872;BME280;26591;43.264;26.940;2023-12-20T10:20:20;98565.88;;;13.33;46.57
40872;BME280;26591;43.264;26.940;2023-12-20T10:22:45;98561.44;;;13.40;46.45
40872;BME280;26591;43.264;26.940;2023-12-20T10:25:12;98557.19;;;13.17;46.40
40872;BME280;26591;43.264;26.940;2023-12-20T10:27:37;98549.94;;;13.04;47.08
40872;BME280;26591;43.264;26.940;2023-12-20T10:30:03;98548.22;;;12.61;47.48
40872;BME280;26591;43.264;26.940;2023-12-20T10:32:30;98536.63;;;12.69;48.08
40872;BME280;26591;43.264;26.940;2023-12-20T10:34:55;98542.19;;;12.31;47.63
40872;BME280;26591;43.264;26.940;2023-12-20T10:37:21;98544.69;;;12.32;47.97
40872;BME280;26591;43.264;26.940;2023-12-20T10:39:50;98533.94;;;12.62;48.13
40872;BME280;26591;43.264;26.940;2023-12-20T10:42:25;98539.28;;;13.33;47.04
40872;BME280;26591;43.264;26.940;2023-12-20T10:44:51;98525.00;;;13.82;45.88
40872;BME280;26591;43.264;26.940;2023-12-20T10:47:19;98522.47;;;14.29;45.13
40872;BME280;26591;43.264;26.940;2023-12-20T10:49:45;98523.72;;;14.33;44.74
40872;BME280;26591;43.264;26.940;2023-12-20T10:52:11;98521.22;;;14.32;45.00
40872;BME280;26591;43.264;26.940;2023-12-20T10:54:39;98520.84;;;14.35;45.81
40872;BME280;26591;43.264;26.940;2023-12-20T10:57:05;98510.41;;;14.40;46.07
40872;BME280;26591;43.264;26.940;2023-12-20T10:59:33;98503.78;;;14.02;46.03
40872;BME280;26591;43.264;26.940;2023-12-20T11:02:02;98491.63;;;13.73;46.66
40872;BME280;26591;43.264;26.940;2023-12-20T11:04:58;98490.91;;;14.06;47.07
40872;BME280;26591;43.264;26.940;2023-12-20T11:07:31;98491.13;;;14.25;46.35
40872;BME280;26591;43.264;26.940;2023-12-20T11:10:16;98487.66;;;14.44;46.54
40872;BME280;26591;43.264;26.940;2023-12-20T11:12:50;98488.06;;;14.61;45.53
40872;BME280;26591;43.264;26.940;2023-12-20T11:15:19;98483.94;;;14.65;45.51
40872;BME280;26591;43.264;26.940;2023-12-20T11:17:45;98487.66;;;14.71;45.64
40872;BME280;26591;43.264;26.940;2023-12-20T11:20:13;98478.00;;;15.04;45.64
40872;BME280;26591;43.264;26.940;2023-12-20T11:22:40;98479.91;;;15.42;44.95
40872;BME280;26591;43.264;26.940;2023-12-20T11:25:16;98467.34;;;15.56;43.65
40872;BME280;26591;43.264;26.940;2023-12-20T11:27:42;98465.00;;;15.73;43.83
40872;BME280;26591;43.264;26.940;2023-12-20T11:30:11;98460.47;;;15.74;43.83
40872;BME280;26591;43.264;26.940;2023-12-20T11:35:59;98450.25;;;15.70;42.48
40872;BME280;26591;43.264;26.940;2023-12-20T11:38:25;98448.69;;;15.56;43.01
40872;BME280;26591;43.264;26.940;2023-12-20T11:40:54;98443.97;;;15.51;43.67
40872;BME280;26591;43.264;26.940;2023-12-20T11:43:35;98443.66;;;15.34;43.70
40872;BME280;26591;43.264;26.940;2023-12-20T11:46:08;98437.00;;;15.05;44.28
40872;BME280;26591;43.264;26.940;2023-12-20T11:48:39;98437.13;;;15.23;44.64
40872;BME280;26591;43.264;26.940;2023-12-20T11:51:12;98422.56;;;15.26;44.74
40872;BME280;26591;43.264;26.940;2023-12-20T11:53:39;98419.75;;;15.07;44.55
40872;BME280;26591;43.264;26.940;2023-12-20T11:56:06;98418.06;;;15.20;45.15
40872;BME280;26591;43.264;26.940;2023-12-20T11:58:32;98414.06;;;15.49;44.24
40872;BME280;26591;43.264;26.940;2023-12-20T12:00:58;98409.59;;;15.36;44.47
40872;BME280;26591;43.264;26.940;2023-12-20T12:03:23;98403.06;;;14.60;45.46
40872;BME280;26591;43.264;26.940;2023-12-20T12:05:49;98400.44;;;14.19;44.95
40872;BME280;26591;43.264;26.940;2023-12-20T12:08:16;98387.22;;;14.92;45.40
40872;BME280;26591;43.264;26.940;2023-12-20T12:10:43;98384.31;;;15.46;44.51
40872;BME280;26591;43.264;26.940;2023-12-20T12:13:08;98380.44;;;15.03;44.65
40872;BME280;26591;43.264;26.940;2023-12-20T12:15:35;98373.34;;;14.63;44.49
40872;BME280;26591;43.264;26.940;2023-12-20T12:18:01;98366.03;;;14.45;45.38
40872;BME280;26591;43.264;26.940;2023-12-20T12:20:27;98365.78;;;14.53;45.38
40872;BME280;26591;43.264;26.940;2023-12-20T12:23:03;98361.94;;;14.35;46.06
40872;BME280;26591;43.264;26.940;2023-12-20T12:25:30;98362.53;;;14.44;45.91
40872;BME280;26591;43.264;26.940;2023-12-20T12:27:57;98360.91;;;14.30;45.86
40872;BME280;26591;43.264;26.940;2023-12-20T12:30:23;98361.44;;;14.65;45.60
40872;BME280;26591;43.264;26.940;2023-12-20T12:32:51;98356.09;;;14.86;45.13
40872;BME280;26591;43.264;26.940;2023-12-20T12:35:17;98353.44;;;15.31;44.12
40872;BME280;26591;43.264;26.940;2023-12-20T12:37:43;98345.72;;;15.16;44.65
40872;BME280;26591;43.264;26.940;2023-12-20T12:40:13;98343.50;;;15.45;43.76
40872;BME280;26591;43.264;26.940;2023-12-20T12:42:40;98332.19;;;15.50;43.56
40872;BME280;26591;43.264;26.940;2023-12-20T12:45:06;98329.34;;;15.77;43.05
40872;BME280;26591;43.264;26.940;2023-12-20T12:47:33;98322.63;;;15.99;42.06
40872;BME280;26591;43.264;26.940;2023-12-20T12:49:58;98324.63;;;16.04;42.95
40872;BME280;26591;43.264;26.940;2023-12-20T12:52:24;98329.78;;;16.24;42.71
40872;BME280;26591;43.264;26.940;2023-12-20T12:55:08;98313.47;;;16.51;41.43
40872;BME280;26591;43.264;26.940;2023-12-20T12:57:33;98319.84;;;16.69;41.75
40872;BME280;26591;43.264;26.940;2023-12-20T12:59:59;98315.13;;;16.71;40.91
40872;BME280;26591;43.264;26.940;2023-12-20T13:02:25;98310.78;;;16.32;41.60